Time;durP1;ratioP1;P1;durP2;ratioP2;P2;SDS_P1;SDS_P2;PMS_P1;PMS_P2;Temp;Humidity;BMP_temperature;BMP_pressure;BME280_temperature;BME280_humidity;BME280_pressure;Samples;Min_cycle;Max_cycle;Signal;HPM_P1;HPM_P2
2023/01/27 00:09:44;;;;;;;15.13;8.65;;;;;;;20.56;nan;100354.81;20889959;28;20133;-78
2023/01/27 00:19:44;;;;;;;14.18;9.43;;;;;;;20.56;nan;100346.91;20923798;28;20077;-79
2023/01/27 00:29:45;;;;;;;14.60;9.00;;;;;;;20.54;nan;100339.13;20923727;28;20587;-79
2023/01/27 00:39:45;;;;;;;16.10;9.25;;;;;;;20.51;nan;100339.38;20916691;28;20454;-78
2023/01/27 00:49:46;;;;;;;13.63;8.48;;;;;;;20.52;nan;100335.78;20883775;28;20041;-79
2023/01/27 00:59:46;;;;;;;15.38;8.23;;;;;;;20.50;nan;100342.94;20903020;28;20577;-78
2023/01/27 01:09:47;;;;;;;13.18;8.00;;;;;;;20.48;nan;100342.22;20896822;28;20442;-78
2023/01/27 01:19:47;;;;;;;14.02;8.00;;;;;;;20.47;nan;100335.31;20901769;28;20048;-79
2023/01/27 01:29:48;;;;;;;11.32;7.18;;;;;;;20.45;nan;100330.13;20899552;28;20061;-78
2023/01/27 01:39:48;;;;;;;12.32;7.82;;;;;;;20.43;nan;100325.94;20897504;28;20047;-79
2023/01/27 01:49:49;;;;;;;12.07;7.10;;;;;;;20.44;nan;100319.75;20900033;28;20040;-78
2023/01/27 01:59:57;;;;;;;11.82;6.90;;;;;;;20.44;nan;100320.56;20911887;28;20137;-78
2023/01/27 02:09:59;;;;;;;11.25;6.70;;;;;;;20.43;nan;100310.16;20921194;28;20091;-78
2023/01/27 02:20:13;;;;;;;10.32;6.78;;;;;;;20.43;nan;100297.88;20912963;28;20123;-78
2023/01/27 02:30:14;;;;;;;10.98;6.75;;;;;;;20.42;nan;100288.31;20903346;28;20109;-79
2023/01/27 02:40:16;;;;;;;10.85;6.65;;;;;;;20.42;nan;100269.88;20889052;28;20583;-79
2023/01/27 02:50:17;;;;;;;9.40;5.97;;;;;;;20.40;nan;100260.44;20881638;28;20103;-78
2023/01/27 03:00:18;;;;;;;8.98;6.15;;;;;;;20.41;nan;100257.69;20878120;28;20041;-79
2023/01/27 03:10:19;;;;;;;10.70;6.13;;;;;;;20.39;nan;100242.97;20872445;28;20063;-78
2023/01/27 03:20:19;;;;;;;10.98;6.25;;;;;;;20.38;nan;100228.16;20924253;28;20443;-79
2023/01/27 03:30:19;;;;;;;9.20;5.70;;;;;;;20.38;nan;100226.34;20921779;28;20048;-78
2023/01/27 03:50:42;;;;;;;8.93;5.60;;;;;;;20.35;nan;100213.44;20910368;28;20041;-78
2023/01/27 04:00:44;;;;;;;9.20;5.93;;;;;;;20.35;nan;100202.94;20909794;28;20045;-78
2023/01/27 04:11:53;;;;;;;7.20;5.00;;;;;;;20.33;nan;100196.94;20914248;28;20052;-79
2023/01/27 04:21:05;;;;;;;7.50;4.97;;;;;;;20.34;nan;100198.63;20916539;28;20207;-78
2023/01/27 04:31:05;;;;;;;8.18;5.15;;;;;;;20.30;nan;100203.28;20915032;28;20045;-78
2023/01/27 04:41:05;;;;;;;8.05;5.15;;;;;;;20.32;nan;100211.03;20911024;28;20556;-78
2023/01/27 04:51:06;;;;;;;7.85;5.25;;;;;;;20.28;nan;100213.06;20916266;28;20163;-79
2023/01/27 05:01:06;;;;;;;7.85;4.97;;;;;;;20.36;nan;100219.53;20824840;28;20037;-78
2023/01/27 05:11:07;;;;;;;7.82;4.90;;;;;;;20.31;nan;100220.75;20836667;28;20040;-79
2023/01/27 05:21:12;;;;;;;12.45;5.93;;;;;;;20.36;nan;100212.50;20820974;28;20052;-75
2023/01/27 05:31:19;;;;;;;13.85;9.70;;;;;;;20.44;nan;100215.34;20816233;28;20495;-77
2023/01/27 05:41:20;;;;;;;19.92;7.38;;;;;;;20.55;nan;100209.28;20819267;28;20120;-76
2023/01/27 05:51:23;;;;;;;16.55;5.82;;;;;;;20.63;nan;100206.88;20819612;28;20095;-81
2023/01/27 06:01:28;;;;;;;24.38;12.45;;;;;;;20.69;nan;100212.63;20820878;28;20045;-75
2023/01/27 06:11:28;;;;;;;15.65;6.28;;;;;;;20.73;nan;100209.66;20842863;28;20118;-77
2023/01/27 06:21:29;;;;;;;18.48;6.60;;;;;;;20.73;nan;100188.63;20834895;28;20093;-82
2023/01/27 06:31:29;;;;;;;17.15;6.20;;;;;;;20.78;nan;100196.16;20748711;28;20050;-77
2023/01/27 06:41:30;;;;;;;16.45;5.53;;;;;;;20.76;nan;100201.53;20659828;28;20078;-78
2023/01/27 06:51:31;;;;;;;17.90;5.95;;;;;;;20.86;nan;100201.66;20676127;28;20125;-79
2023/01/27 07:01:31;;;;;;;11.00;5.95;;;;;;;20.91;nan;100217.06;20737189;28;20049;-78
2023/01/27 07:11:31;;;;;;;10.48;5.38;;;;;;;20.99;nan;100216.47;20775362;28;20095;-81
2023/01/27 07:21:33;;;;;;;11.15;4.72;;;;;;;21.05;nan;100219.44;20789996;28;20050;-81
2023/01/27 07:31:33;;;;;;;9.57;4.95;;;;;;;21.11;nan;100228.66;20792850;28;20068;-81
2023/01/27 07:41:34;;;;;;;7.88;3.85;;;;;;;21.17;nan;100222.91;20782115;28;20492;-76
2023/01/27 07:51:34;;;;;;;6.97;4.10;;;;;;;21.23;nan;100208.41;20780061;28;20075;-80
2023/01/27 08:01:36;;;;;;;9.95;4.28;;;;;;;21.27;nan;100218.56;20762121;28;20492;-80
2023/01/27 08:11:37;;;;;;;7.70;4.30;;;;;;;21.31;nan;100228.84;20765894;28;20132;-79
2023/01/27 08:21:38;;;;;;;9.57;4.97;;;;;;;21.32;nan;100233.16;20751144;28;20687;-78
2023/01/27 08:31:40;;;;;;;14.38;7.10;;;;;;;21.33;nan;100234.84;20763525;28;20112;-79
2023/01/27 08:41:40;;;;;;;11.05;5.25;;;;;;;21.33;nan;100238.31;20730732;28;20125;-79
2023/01/27 08:51:41;;;;;;;15.35;7.22;;;;;;;21.34;nan;100242.63;20744081;28;20041;-79
2023/01/27 09:01:42;;;;;;;9.27;5.63;;;;;;;21.37;nan;100246.78;20748219;28;20128;-79
2023/01/27 09:11:44;;;;;;;14.35;5.95;;;;;;;21.35;nan;100252.19;20740351;28;20048;-79
2023/01/27 09:21:45;;;;;;;10.97;5.97;;;;;;;21.35;nan;100262.72;20733792;28;20045;-78
2023/01/27 09:31:46;;;;;;;14.43;8.57;;;;;;;21.35;nan;100264.50;20734428;28;20041;-77
2023/01/27 09:42:19;;;;;;;15.18;8.77;;;;;;;21.34;nan;100268.97;20746200;28;20121;-78
2023/01/27 09:52:39;;;;;;;9.82;5.53;;;;;;;21.34;nan;100261.06;20737275;28;20160;-76
2023/01/27 10:03:05;;;;;;;1152.75;999.90;;;;;;;21.32;nan;100255.06;20749929;28;20046;-75
2023/01/27 10:13:15;;;;;;;1151.07;999.90;;;;;;;21.32;nan;100262.97;20793372;28;20052;-86
2023/01/27 10:23:40;;;;;;;1152.75;999.90;;;;;;;21.33;nan;100251.47;20791954;28;20120;-84
2023/01/27 10:33:55;;;;;;;1151.25;999.90;;;;;;;21.29;nan;100252.69;20788777;28;20037;-86
2023/01/27 10:44:34;;;;;;;1151.35;999.90;;;;;;;21.25;nan;100257.38;20762692;28;20037;-81
2023/01/27 10:54:54;;;;;;;1153.57;999.90;;;;;;;21.26;nan;100245.03;20795651;28;20061;-87
2023/01/27 11:05:04;;;;;;;1149.97;999.90;;;;;;;21.26;nan;100234.50;20787855;28;20057;-85
2023/01/27 11:15:25;;;;;;;1148.40;999.90;;;;;;;21.25;nan;100227.53;20823922;28;20041;-85
2023/01/27 11:26:00;;;;;;;1146.70;999.90;;;;;;;21.25;nan;100227.53;20771478;28;21935;-84
2023/01/27 11:36:00;;;;;;;1150.40;999.90;;;;;;;21.26;nan;100216.06;20785247;28;20037;-81
2023/01/27 11:46:05;;;;;;;1146.03;999.90;;;;;;;21.02;nan;100203.91;20773831;28;20049;-83
2023/01/27 11:56:18;;;;;;;1150.45;999.90;;;;;;;21.22;nan;100183.88;20786507;28;20408;-83
2023/01/27 12:06:41;;;;;;;1151.63;999.90;;;;;;;21.28;nan;100183.38;20794375;28;20045;-81
2023/01/27 12:16:50;;;;;;;1153.40;999.90;;;;;;;21.28;nan;100172.00;20778993;28;20034;-84
2023/01/27 12:26:52;;;;;;;1155.28;999.90;;;;;;;21.28;nan;100162.28;20757129;28;20496;-84
2023/01/27 12:36:54;;;;;;;1155.28;999.90;;;;;;;21.27;nan;100154.53;20742716;28;20041;-76
2023/01/27 12:47:01;;;;;;;1154.90;999.90;;;;;;;21.25;nan;100159.94;20738172;28;20067;-81
2023/01/27 12:57:11;;;;;;;1105.22;995.25;;;;;;;21.24;nan;100152.16;20747925;28;20058;-82
2023/01/27 13:07:18;;;;;;;128.45;116.40;;;;;;;21.23;nan;100159.22;20767304;28;20049;-79
2023/01/27 13:17:40;;;;;;;249.40;225.23;;;;;;;21.21;nan;100168.19;20775470;28;20037;-81
2023/01/27 13:27:40;;;;;;;188.05;170.23;;;;;;;21.21;nan;100176.09;20787204;28;20592;-79
2023/01/27 13:37:51;;;;;;;124.55;113.82;;;;;;;21.20;nan;100170.00;20792145;28;20091;-80
2023/01/27 13:48:18;;;;;;;143.77;131.40;;;;;;;21.14;nan;100180.19;20767309;28;20068;-83
2023/01/27 13:58:35;;;;;;;188.70;171.15;;;;;;;21.14;nan;100177.56;20747652;28;20440;-80
2023/01/27 14:08:54;;;;;;;204.05;185.05;;;;;;;21.19;nan;100167.47;20761082;28;20067;-81
2023/01/27 14:19:02;;;;;;;212.95;192.88;;;;;;;21.23;nan;100176.81;20767548;28;20149;-81
2023/01/27 14:29:12;;;;;;;236.57;214.23;;;;;;;21.22;nan;100175.97;20745524;28;20132;-78
2023/01/27 14:39:16;;;;;;;247.52;223.48;;;;;;;21.24;nan;100178.50;20735844;28;20076;-80
2023/01/27 14:49:30;;;;;;;199.05;180.25;;;;;;;21.24;nan;100174.06;20723772;28;20124;-81
2023/01/27 14:59:33;;;;;;;226.30;205.07;;;;;;;21.24;nan;100170.59;20735065;28;20102;-81
2023/01/27 15:10:02;;;;;;;287.40;259.55;;;;;;;21.23;nan;100164.47;20738312;28;20042;-81
2023/01/27 15:20:30;;;;;;;369.95;333.88;;;;;;;21.23;nan;100168.91;20744415;28;20050;-81
2023/01/27 15:30:36;;;;;;;435.45;392.52;;;;;;;21.21;nan;100174.28;20773231;28;20046;-82
2023/01/27 15:40:57;;;;;;;1142.57;999.90;;;;;;;21.15;nan;100189.75;20795521;28;20135;-90
2023/01/27 15:51:17;;;;;;;432.65;390.63;;;;;;;21.08;nan;100192.03;20807387;28;20045;-82
2023/01/27 16:01:29;;;;;;;468.48;423.00;;;;;;;21.11;nan;100182.09;20719641;28;20094;-87
2023/01/27 16:11:30;;;;;;;;;;;;;;;21.13;nan;100192.53;20736908;28;20171;-83
2023/01/27 16:21:58;;;;;;;544.17;494.83;;;;;;;21.12;nan;100204.00;20745761;28;19917;-83
2023/01/27 16:32:15;;;;;;;910.75;836.08;;;;;;;21.11;nan;100202.34;20735072;28;20060;-82
2023/01/27 16:42:25;;;;;;;570.20;519.50;;;;;;;21.08;nan;100227.13;20732738;28;20048;-84
2023/01/27 16:52:32;;;;;;;204.85;185.80;;;;;;;21.07;nan;100222.81;20695403;28;20184;-85
2023/01/27 17:02:34;;;;;;;165.13;149.52;;;;;;;21.03;nan;100220.53;20712931;28;20057;-86
2023/01/27 17:12:56;;;;;;;145.27;132.07;;;;;;;21.07;nan;100238.59;20687071;28;20066;-85
2023/01/27 17:23:04;;;;;;;111.27;101.53;;;;;;;21.06;nan;100244.81;20673529;28;20077;-88
2023/01/27 17:33:13;;;;;;;158.35;143.95;;;;;;;21.16;nan;100246.72;20661293;28;20334;-83
2023/01/27 17:43:32;;;;;;;177.30;160.60;;;;;;;21.16;nan;100242.28;20685211;28;20834;-80
2023/01/27 17:53:38;;;;;;;200.85;182.07;;;;;;;21.12;nan;100243.50;20715274;28;20042;-84
2023/01/27 18:03:51;;;;;;;239.52;216.90;;;;;;;21.15;nan;100251.13;20786494;28;20912;-81
2023/01/27 18:13:53;;;;;;;222.05;200.68;;;;;;;21.21;nan;100250.66;20793774;28;20500;-82
2023/01/27 18:23:56;;;;;;;215.90;195.38;;;;;;;21.28;nan;100264.19;20780668;28;20034;-82
2023/01/27 18:34:21;;;;;;;237.73;215.23;;;;;;;21.32;nan;100259.50;20765758;28;20053;-81
2023/01/27 18:44:35;;;;;;;225.40;203.52;;;;;;;21.35;nan;100256.59;20755404;28;22014;-82
2023/01/27 18:54:36;;;;;;;181.38;164.48;;;;;;;21.35;nan;100265.38;20788277;28;20045;-83
2023/01/27 19:04:38;;;;;;;280.10;253.10;;;;;;;21.37;nan;100262.59;20797558;28;20038;-83
2023/01/27 19:14:40;;;;;;;323.07;291.77;;;;;;;21.36;nan;100261.78;20784594;28;20277;-83
2023/01/27 19:24:44;;;;;;;315.35;284.42;;;;;;;21.38;nan;100270.38;20811053;28;20041;-82
2023/01/27 19:34:46;;;;;;;374.88;338.40;;;;;;;21.33;nan;100275.19;20796855;28;20080;-82
2023/01/27 19:44:46;;;;;;;409.20;369.23;;;;;;;21.33;nan;100277.00;20810766;28;20053;-84
2023/01/27 19:54:49;;;;;;;400.08;361.02;;;;;;;21.27;nan;100284.41;20812073;28;20060;-87
2023/01/27 20:04:53;;;;;;;;;;;;;;;21.23;nan;100298.78;20804732;28;20045;-87
2023/01/27 20:14:54;;;;;;;414.45;373.17;;;;;;;21.25;nan;100310.03;20771742;28;20465;-77
2023/01/27 20:24:55;;;;;;;447.73;403.63;;;;;;;21.20;nan;100309.56;20777297;28;20564;-80
2023/01/27 20:34:59;;;;;;;537.85;487.55;;;;;;;21.23;nan;100319.00;20768350;28;20041;-79
2023/01/27 20:45:00;;;;;;;634.75;577.83;;;;;;;21.25;nan;100314.44;20775554;28;20061;-77
2023/01/27 20:55:03;;;;;;;924.75;848.20;;;;;;;21.17;nan;100333.50;20732769;28;20048;-81
2023/01/27 21:05:05;;;;;;;886.83;812.65;;;;;;;21.00;nan;100328.72;20773597;28;20057;-89
2023/01/27 21:15:08;;;;;;;994.43;914.03;;;;;;;20.90;nan;100326.78;20741202;28;20132;-90
2023/01/27 21:25:09;;;;;;;1080.97;982.78;;;;;;;20.90;nan;100325.97;20743536;28;20041;-91
2023/01/27 21:35:10;;;;;;;1025.93;944.07;;;;;;;20.89;nan;100322.47;20763510;28;20050;-90
2023/01/27 21:45:14;;;;;;;1019.10;937.53;;;;;;;20.87;nan;100323.53;20763889;28;20041;-90
2023/01/27 21:55:21;;;;;;;969.30;890.72;;;;;;;20.85;nan;100338.59;20732654;28;20077;-90
2023/01/27 22:05:22;;;;;;;988.17;908.40;;;;;;;20.88;nan;100338.38;20729964;28;20127;-91
2023/01/27 22:15:22;;;;;;;907.08;832.20;;;;;;;20.81;nan;100343.28;20734319;28;20054;-89
2023/01/27 22:25:28;;;;;;;955.50;877.95;;;;;;;20.79;nan;100339.94;20774035;28;20049;-87
2023/01/27 22:35:29;;;;;;;861.38;789.58;;;;;;;20.78;nan;100330.34;20757511;28;20176;-87
2023/01/27 22:45:30;;;;;;;874.17;801.47;;;;;;;20.73;nan;100325.44;20747447;28;20563;-89
2023/01/27 22:55:32;;;;;;;858.83;787.28;;;;;;;20.73;nan;100322.00;20775165;28;20534;-89
2023/01/27 23:05:35;;;;;;;935.47;859.60;;;;;;;20.70;nan;100327.44;20771666;28;20042;-89
2023/01/27 23:15:35;;;;;;;989.40;909.93;;;;;;;20.64;nan;100320.84;20754115;28;20068;-88
2023/01/27 23:25:44;;;;;;;954.70;877.20;;;;;;;20.60;nan;100314.16;20757879;28;20128;-89
2023/01/27 23:35:46;;;;;;;1005.22;925.50;;;;;;;20.62;nan;100317.50;20747076;28;20972;-88
2023/01/27 23:45:53;;;;;;;952.03;875.05;;;;;;;20.57;nan;100322.28;20748123;28;20079;-89
2023/01/27 23:55:58;;;;;;;1032.85;951.30;;;;;;;20.56;nan;100318.81;20747495;28;20092;-89
